Melvin, Texas
Current Conditions -  °F | °C
As of 3:35 AM on Friday 31 Oct 2014 (Local Time) from KBBD Reporting Station
Scattered Clouds Scattered Clouds  
Wind Chill: 64°   Ceiling: Unl
Heat Index: 64°   Visibility: 10mi
Dew Point: 54°   Wind: 10mph
Humidity: 68%   Direction: 20°NNE
Pressure: 30.22"   Gusts: NA
Location:  31.2°N, 99.58°W
Report Text: KBBD 310835Z AUTO 02009KT 10SM SCT075 18/12 A3022 RMK
Loading
Personal Weather Stations






























Interactive Weather Map
Tropical Storm Tracking
New forecast layout! Learn more

10-Day Weather Forecast

Advertisements
Track Severe Weather on mobile